Time;durP1;ratioP1;P1;durP2;ratioP2;P2;SDS_P1;SDS_P2;PMS_P1;PMS_P2;Temp;Humidity;BMP_temperature;BMP_pressure;BME280_temperature;BME280_humidity;BME280_pressure;Samples;Min_cycle;Max_cycle;Signal;HPM_P1;HPM_P2
2023/03/17 00:00:04;;;;;;;2.00;1.80;;;;;;;;;;5120127;28;20227;-61
2023/03/17 00:02:31;;;;;;;2.05;1.73;;;;;;;;;;5119781;28;20211;-61
2023/03/17 00:04:59;;;;;;;2.63;2.00;;;;;;;;;;5119597;28;20199;-61
2023/03/17 00:07:27;;;;;;;1.77;1.67;;;;;;;;;;5119758;28;20575;-61
2023/03/17 00:09:55;;;;;;;1.83;1.73;;;;;;;;;;5119439;28;20199;-61
2023/03/17 00:12:24;;;;;;;1.80;1.70;;;;;;;;;;5120194;28;20238;-61
2023/03/17 00:14:52;;;;;;;1.80;1.70;;;;;;;;;;5119094;28;20218;-61
2023/03/17 00:17:20;;;;;;;2.00;1.88;;;;;;;;;;5119866;28;20226;-61
2023/03/17 00:19:47;;;;;;;1.63;1.52;;;;;;;;;;5118945;28;20306;-61
2023/03/17 00:22:17;;;;;;;1.98;1.67;;;;;;;;;;5119595;28;20289;-61
2023/03/17 00:24:45;;;;;;;2.05;1.88;;;;;;;;;;5119397;28;20211;-61
2023/03/17 00:27:14;;;;;;;2.38;1.80;;;;;;;;;;5119415;28;20264;-61
2023/03/17 00:29:43;;;;;;;2.00;1.80;;;;;;;;;;5119439;28;20209;-61
2023/03/17 00:32:17;;;;;;;1.80;1.70;;;;;;;;;;5119489;28;20218;-61
2023/03/17 00:34:45;;;;;;;1.63;1.52;;;;;;;;;;5119426;28;20594;-61
2023/03/17 00:37:13;;;;;;;1.80;1.70;;;;;;;;;;5119601;28;20195;-61
2023/03/17 00:39:40;;;;;;;2.20;2.00;;;;;;;;;;5119301;28;20245;-61
2023/03/17 00:42:09;;;;;;;1.75;1.65;;;;;;;;;;5119502;28;20202;-61
2023/03/17 00:44:36;;;;;;;1.80;1.70;;;;;;;;;;5119466;28;20211;-61
2023/03/17 00:47:12;;;;;;;2.05;1.90;;;;;;;;;;5119359;28;20692;-61
2023/03/17 00:49:40;;;;;;;1.70;1.60;;;;;;;;;;5119224;28;20554;-61
2023/03/17 00:52:09;;;;;;;1.90;1.70;;;;;;;;;;5119074;28;20202;-61
2023/03/17 00:54:37;;;;;;;1.80;1.70;;;;;;;;;;5118664;28;20199;-61
2023/03/17 00:57:05;;;;;;;2.08;1.92;;;;;;;;;;5118981;28;20211;-61
2023/03/17 00:59:38;;;;;;;1.90;1.80;;;;;;;;;;5118576;28;20301;-61
2023/03/17 01:02:07;;;;;;;2.00;1.80;;;;;;;;;;5115754;28;20282;-61
2023/03/17 01:04:35;;;;;;;1.98;1.80;;;;;;;;;;5106565;28;20203;-61
2023/03/17 01:07:03;;;;;;;1.90;1.80;;;;;;;;;;5119093;28;20203;-61
2023/03/17 01:09:32;;;;;;;2.15;1.95;;;;;;;;;;5118696;28;20210;-61
2023/03/17 01:12:00;;;;;;;1.98;1.77;;;;;;;;;;5118795;28;20211;-61
2023/03/17 01:14:28;;;;;;;2.47;2.00;;;;;;;;;;5118889;28;20507;-61
2023/03/17 01:16:56;;;;;;;1.88;1.77;;;;;;;;;;5118834;28;20235;-61
2023/03/17 01:19:26;;;;;;;3.15;2.10;;;;;;;;;;5118338;28;20653;-61
2023/03/17 01:21:54;;;;;;;2.20;2.10;;;;;;;;;;5118189;28;20546;-61
2023/03/17 01:24:21;;;;;;;2.00;1.80;;;;;;;;;;5118529;28;20203;-61
2023/03/17 01:26:49;;;;;;;1.90;1.80;;;;;;;;;;5118490;28;20298;-61
2023/03/17 01:29:18;;;;;;;2.10;1.90;;;;;;;;;;5118122;28;20214;-61
2023/03/17 01:31:46;;;;;;;1.80;1.67;;;;;;;;;;5118697;28;20217;-61
2023/03/17 01:34:14;;;;;;;2.30;2.10;;;;;;;;;;5118093;28;20211;-61
2023/03/17 01:36:43;;;;;;;2.15;1.95;;;;;;;;;;5117933;28;20211;-61
2023/03/17 01:39:11;;;;;;;2.13;1.98;;;;;;;;;;5118252;28;20305;-61
2023/03/17 01:41:39;;;;;;;2.05;1.83;;;;;;;;;;5118214;28;20237;-61
2023/03/17 01:44:07;;;;;;;2.00;1.80;;;;;;;;;;5118668;28;20203;-61
2023/03/17 01:46:36;;;;;;;2.05;1.88;;;;;;;;;;5118698;28;20228;-61
2023/03/17 01:49:08;;;;;;;1.80;1.70;;;;;;;;;;5118292;28;20298;-61
2023/03/17 01:51:37;;;;;;;2.08;1.88;;;;;;;;;;5117775;28;20293;-61
2023/03/17 01:54:09;;;;;;;1.80;1.70;;;;;;;;;;5117912;28;20203;-61
2023/03/17 01:56:39;;;;;;;2.10;1.90;;;;;;;;;;5117847;28;20249;-61
2023/03/17 01:59:08;;;;;;;2.00;1.80;;;;;;;;;;5117576;28;20252;-61
2023/03/17 02:01:38;;;;;;;2.50;2.25;;;;;;;;;;5118380;28;20478;-61
2023/03/17 02:04:06;;;;;;;2.47;2.03;;;;;;;;;;5117609;28;20203;-61
2023/03/17 02:06:35;;;;;;;2.30;2.00;;;;;;;;;;5118163;28;20215;-61
2023/03/17 02:09:03;;;;;;;2.10;1.90;;;;;;;;;;5117703;28;20594;-61
2023/03/17 02:11:32;;;;;;;1.90;1.80;;;;;;;;;;5117965;28;20203;-61
2023/03/17 02:14:00;;;;;;;2.42;2.22;;;;;;;;;;5117985;28;20243;-61
2023/03/17 02:16:28;;;;;;;2.08;1.88;;;;;;;;;;5117703;28;20210;-61
2023/03/17 02:18:56;;;;;;;2.13;1.92;;;;;;;;;;5117621;28;20245;-61
2023/03/17 02:21:38;;;;;;;1.70;1.60;;;;;;;;;;5117666;28;20231;-61
2023/03/17 02:24:08;;;;;;;1.98;1.77;;;;;;;;;;5117429;28;20195;-62
2023/03/17 02:26:37;;;;;;;2.08;1.88;;;;;;;;;;5117429;28;20306;-62
2023/03/17 02:29:05;;;;;;;2.15;1.95;;;;;;;;;;5117683;28;20246;-62
2023/03/17 02:31:34;;;;;;;2.10;1.90;;;;;;;;;;5117451;28;20199;-62
2023/03/17 02:34:02;;;;;;;1.92;1.83;;;;;;;;;;5117504;28;20202;-62
2023/03/17 02:36:30;;;;;;;2.28;2.08;;;;;;;;;;5118106;28;20203;-62
2023/03/17 02:39:00;;;;;;;1.92;1.83;;;;;;;;;;5121378;28;20203;-62
2023/03/17 02:41:28;;;;;;;2.10;1.90;;;;;;;;;;5121615;28;20227;-61
2023/03/17 02:43:55;;;;;;;2.10;1.90;;;;;;;;;;5121847;28;20265;-61
2023/03/17 02:46:23;;;;;;;2.00;1.90;;;;;;;;;;5121836;28;20541;-61
2023/03/17 02:48:51;;;;;;;1.85;1.75;;;;;;;;;;5121481;28;20213;-61
2023/03/17 02:51:19;;;;;;;2.20;2.00;;;;;;;;;;5121643;28;20217;-61
2023/03/17 02:53:46;;;;;;;2.22;2.03;;;;;;;;;;5120334;28;20310;-61
2023/03/17 02:56:15;;;;;;;2.10;1.90;;;;;;;;;;5121504;28;20294;-61
2023/03/17 02:58:43;;;;;;;2.28;1.98;;;;;;;;;;5121159;28;20206;-61
2023/03/17 03:01:11;;;;;;;1.92;1.80;;;;;;;;;;5121258;28;20700;-61
2023/03/17 03:03:39;;;;;;;2.00;1.80;;;;;;;;;;5121270;28;20252;-61
2023/03/17 03:06:07;;;;;;;1.98;1.88;;;;;;;;;;5121520;28;20210;-61
2023/03/17 03:08:35;;;;;;;1.88;1.77;;;;;;;;;;5121154;28;20631;-61
2023/03/17 03:11:03;;;;;;;2.22;1.98;;;;;;;;;;5121370;28;20206;-61
2023/03/17 03:13:33;;;;;;;1.95;1.75;;;;;;;;;;5121390;28;20493;-62
2023/03/17 03:16:01;;;;;;;2.20;2.00;;;;;;;;;;5121283;28;20571;-62
2023/03/17 03:18:29;;;;;;;1.80;1.70;;;;;;;;;;5120476;28;20491;-62
2023/03/17 03:20:57;;;;;;;2.25;2.05;;;;;;;;;;5120843;28;20222;-62
2023/03/17 03:23:24;;;;;;;1.65;1.55;;;;;;;;;;5121426;28;20215;-62
2023/03/17 03:25:52;;;;;;;2.03;1.90;;;;;;;;;;5121071;28;20213;-62
2023/03/17 03:28:20;;;;;;;1.75;1.65;;;;;;;;;;5120377;28;20246;-62
2023/03/17 03:30:50;;;;;;;1.98;1.85;;;;;;;;;;5120710;28;20207;-62
2023/03/17 03:33:18;;;;;;;2.15;1.95;;;;;;;;;;5120458;28;20252;-62
2023/03/17 03:35:45;;;;;;;1.88;1.75;;;;;;;;;;5120706;28;20554;-62
2023/03/17 03:38:13;;;;;;;2.25;2.05;;;;;;;;;;5120744;28;20199;-62
2023/03/17 03:40:41;;;;;;;1.80;1.70;;;;;;;;;;5120846;28;20253;-62
2023/03/17 03:43:09;;;;;;;1.90;1.80;;;;;;;;;;5120503;28;20211;-62
2023/03/17 03:45:37;;;;;;;1.98;1.88;;;;;;;;;;5120486;28;20198;-61
2023/03/17 03:48:06;;;;;;;2.63;1.70;;;;;;;;;;5120223;28;20294;-61
2023/03/17 03:50:34;;;;;;;1.92;1.80;;;;;;;;;;5119984;28;20199;-61
2023/03/17 03:53:02;;;;;;;2.40;2.20;;;;;;;;;;5120179;28;20203;-61
2023/03/17 03:55:30;;;;;;;2.15;1.95;;;;;;;;;;5120277;28;20202;-61
2023/03/17 03:57:58;;;;;;;1.95;1.83;;;;;;;;;;5120157;28;20248;-61
2023/03/17 04:00:26;;;;;;;2.25;2.05;;;;;;;;;;5120184;28;20590;-61
2023/03/17 04:02:53;;;;;;;2.13;1.92;;;;;;;;;;5119645;28;20203;-61
2023/03/17 04:05:22;;;;;;;1.90;1.80;;;;;;;;;;5119778;28;20213;-61
2023/03/17 04:07:50;;;;;;;1.92;1.77;;;;;;;;;;5119919;28;20256;-61
2023/03/17 04:10:18;;;;;;;2.40;1.77;;;;;;;;;;5119483;28;20211;-61
2023/03/17 04:12:46;;;;;;;1.83;1.73;;;;;;;;;;5119768;28;20203;-62
2023/03/17 04:15:16;;;;;;;1.80;1.70;;;;;;;;;;5119810;28;20210;-61
2023/03/17 04:17:43;;;;;;;1.90;1.80;;;;;;;;;;5119621;28;20308;-61
2023/03/17 04:20:12;;;;;;;1.90;1.80;;;;;;;;;;5119669;28;20247;-62
2023/03/17 04:22:41;;;;;;;2.28;2.08;;;;;;;;;;5119114;28;20222;-62
2023/03/17 04:25:10;;;;;;;2.10;1.90;;;;;;;;;;5119757;28;20211;-61
2023/03/17 04:27:38;;;;;;;2.10;1.90;;;;;;;;;;5119514;28;20203;-61
2023/03/17 04:30:07;;;;;;;2.10;2.00;;;;;;;;;;5119274;28;20286;-61
2023/03/17 04:32:34;;;;;;;1.80;1.67;;;;;;;;;;5119373;28;20199;-61
2023/03/17 04:35:02;;;;;;;2.00;1.85;;;;;;;;;;5119237;28;20203;-61
2023/03/17 04:37:30;;;;;;;2.03;1.80;;;;;;;;;;5118958;28;20207;-61
2023/03/17 04:39:59;;;;;;;1.75;1.65;;;;;;;;;;5119151;28;20203;-61
2023/03/17 04:42:27;;;;;;;1.90;1.80;;;;;;;;;;5119247;28;20266;-62
2023/03/17 04:44:55;;;;;;;1.80;1.70;;;;;;;;;;5118631;28;20298;-61
2023/03/17 04:47:22;;;;;;;2.13;1.70;;;;;;;;;;5119406;28;20213;-61
2023/03/17 04:49:50;;;;;;;1.67;1.52;;;;;;;;;;5118814;28;20235;-61
2023/03/17 04:52:18;;;;;;;2.67;1.90;;;;;;;;;;5118573;28;20199;-61
2023/03/17 04:54:46;;;;;;;1.70;1.60;;;;;;;;;;5119093;28;20272;-61
2023/03/17 04:57:15;;;;;;;1.88;1.63;;;;;;;;;;5118312;28;20268;-61
2023/03/17 04:59:42;;;;;;;1.80;1.70;;;;;;;;;;5118855;28;20202;-61
2023/03/17 05:02:10;;;;;;;2.10;1.90;;;;;;;;;;5118531;28;20229;-61
2023/03/17 05:04:37;;;;;;;2.00;1.70;;;;;;;;;;5117770;28;20285;-61
2023/03/17 05:07:05;;;;;;;2.30;1.75;;;;;;;;;;5118629;28;20562;-61
2023/03/17 05:09:32;;;;;;;1.80;1.70;;;;;;;;;;5118313;28;20211;-61
2023/03/17 05:12:00;;;;;;;2.00;1.80;;;;;;;;;;5104038;28;20231;-61
2023/03/17 05:14:29;;;;;;;1.92;1.73;;;;;;;;;;5098578;28;20301;-61
2023/03/17 05:16:56;;;;;;;2.13;1.70;;;;;;;;;;5098253;28;20259;-61
2023/03/17 05:19:24;;;;;;;2.17;1.98;;;;;;;;;;5098049;28;20214;-61
2023/03/17 05:21:51;;;;;;;2.03;1.55;;;;;;;;;;5097356;28;20308;-61
2023/03/17 05:24:19;;;;;;;1.80;1.70;;;;;;;;;;5097271;28;20251;-61
2023/03/17 05:26:46;;;;;;;1.90;1.80;;;;;;;;;;5097406;28;20547;-61
2023/03/17 05:29:13;;;;;;;1.92;1.75;;;;;;;;;;5097694;28;20298;-61
2023/03/17 05:31:42;;;;;;;2.45;1.80;;;;;;;;;;5104665;28;20703;-61
2023/03/17 05:34:10;;;;;;;1.85;1.75;;;;;;;;;;5117559;28;20228;-61
2023/03/17 05:36:38;;;;;;;1.83;1.70;;;;;;;;;;5116847;28;20257;-61
2023/03/17 05:39:06;;;;;;;1.95;1.85;;;;;;;;;;5117216;28;20268;-61
2023/03/17 05:41:33;;;;;;;1.73;1.63;;;;;;;;;;5116893;28;20397;-61
2023/03/17 05:44:01;;;;;;;1.70;1.60;;;;;;;;;;5116138;28;20209;-61
2023/03/17 05:46:28;;;;;;;2.25;1.83;;;;;;;;;;5115437;28;20566;-61
2023/03/17 05:48:57;;;;;;;1.80;1.70;;;;;;;;;;5115587;28;20297;-61
2023/03/17 05:51:26;;;;;;;1.70;1.60;;;;;;;;;;5115720;28;20230;-61
2023/03/17 05:53:53;;;;;;;2.00;1.90;;;;;;;;;;5116045;28;20264;-61
2023/03/17 05:56:21;;;;;;;1.92;1.83;;;;;;;;;;5117085;28;20293;-61
2023/03/17 05:58:48;;;;;;;1.80;1.70;;;;;;;;;;5116168;28;20271;-62
2023/03/17 06:01:16;;;;;;;1.73;1.58;;;;;;;;;;5115975;28;20227;-61
2023/03/17 06:03:43;;;;;;;1.92;1.73;;;;;;;;;;5116186;28;20238;-61
2023/03/17 06:06:12;;;;;;;1.63;1.52;;;;;;;;;;5114549;28;20266;-61
2023/03/17 06:08:40;;;;;;;2.13;1.60;;;;;;;;;;5114963;28;20287;-61
2023/03/17 06:11:07;;;;;;;1.80;1.70;;;;;;;;;;5113907;28;20198;-61
2023/03/17 06:13:35;;;;;;;1.95;1.75;;;;;;;;;;5115654;28;20670;-61
2023/03/17 06:16:03;;;;;;;2.75;1.80;;;;;;;;;;5115218;28;20211;-61
2023/03/17 06:18:30;;;;;;;1.70;1.60;;;;;;;;;;5128640;28;20230;-61
2023/03/17 06:20:58;;;;;;;1.90;1.65;;;;;;;;;;5136309;28;20240;-61
2023/03/17 06:23:27;;;;;;;1.70;1.60;;;;;;;;;;5135468;28;20198;-61
2023/03/17 06:25:54;;;;;;;2.00;1.80;;;;;;;;;;5135407;28;20226;-61
2023/03/17 06:28:22;;;;;;;1.83;1.70;;;;;;;;;;5135614;28;20198;-61
2023/03/17 06:30:49;;;;;;;1.85;1.75;;;;;;;;;;5103460;28;20223;-61
2023/03/17 06:33:18;;;;;;;1.70;1.60;;;;;;;;;;5094622;28;20292;-61
2023/03/17 06:35:45;;;;;;;1.90;1.80;;;;;;;;;;5093223;28;20264;-61
2023/03/17 06:38:13;;;;;;;1.98;1.77;;;;;;;;;;5094883;28;20230;-61
2023/03/17 06:40:42;;;;;;;1.70;1.60;;;;;;;;;;5094610;28;20215;-61
2023/03/17 06:43:09;;;;;;;1.73;1.63;;;;;;;;;;5094287;28;20330;-61
2023/03/17 06:45:37;;;;;;;1.77;1.67;;;;;;;;;;5094318;28;20214;-61
2023/03/17 06:48:05;;;;;;;1.65;1.55;;;;;;;;;;5093937;28;20293;-61
2023/03/17 06:50:33;;;;;;;1.70;1.60;;;;;;;;;;5109007;28;20205;-61
2023/03/17 06:53:00;;;;;;;1.92;1.75;;;;;;;;;;5114485;28;20199;-61
2023/03/17 06:55:28;;;;;;;2.53;1.50;;;;;;;;;;5114225;28;20195;-61
2023/03/17 06:57:57;;;;;;;1.70;1.60;;;;;;;;;;5114517;28;20282;-61
2023/03/17 07:00:25;;;;;;;1.88;1.70;;;;;;;;;;5114844;28;20199;-61
2023/03/17 07:02:52;;;;;;;2.33;1.77;;;;;;;;;;5114392;28;20510;-61
2023/03/17 07:05:20;;;;;;;1.98;1.80;;;;;;;;;;5115740;28;20241;-61
2023/03/17 07:07:48;;;;;;;1.67;1.58;;;;;;;;;;5115099;28;20294;-61
2023/03/17 07:10:16;;;;;;;1.65;1.55;;;;;;;;;;5115110;28;20195;-61
2023/03/17 07:12:45;;;;;;;1.63;1.52;;;;;;;;;;5116059;28;20198;-61
2023/03/17 07:15:14;;;;;;;1.63;1.52;;;;;;;;;;5127397;28;20294;-61
2023/03/17 07:17:42;;;;;;;1.70;1.60;;;;;;;;;;5115912;28;20253;-61
2023/03/17 07:20:10;;;;;;;1.58;1.35;;;;;;;;;;5115005;28;20195;-61
2023/03/17 07:22:38;;;;;;;2.10;1.80;;;;;;;;;;5115539;28;20262;-61
2023/03/17 07:25:05;;;;;;;1.58;1.38;;;;;;;;;;5118298;28;20673;-61
2023/03/17 07:27:33;;;;;;;1.55;1.42;;;;;;;;;;5121322;27;20199;-61
2023/03/17 07:30:03;;;;;;;2.63;2.08;;;;;;;;;;5139730;27;20289;-61
2023/03/17 07:32:32;;;;;;;1.67;1.58;;;;;;;;;;5139517;27;20198;-61
2023/03/17 07:35:00;;;;;;;2.33;1.60;;;;;;;;;;5139687;27;20194;-61
2023/03/17 07:37:28;;;;;;;1.80;1.70;;;;;;;;;;5139735;27;20690;-61
2023/03/17 07:39:55;;;;;;;1.58;1.45;;;;;;;;;;5138908;27;20209;-61
2023/03/17 07:42:23;;;;;;;1.85;1.70;;;;;;;;;;5139467;27;20222;-61
2023/03/17 07:44:50;;;;;;;1.90;1.70;;;;;;;;;;5139947;27;20202;-61
2023/03/17 07:47:18;;;;;;;2.15;1.60;;;;;;;;;;5138606;27;20266;-64
2023/03/17 07:49:47;;;;;;;1.88;1.67;;;;;;;;;;5139425;27;20198;-62
2023/03/17 07:52:14;;;;;;;1.50;1.40;;;;;;;;;;5138985;27;20546;-62
2023/03/17 07:54:42;;;;;;;1.50;1.40;;;;;;;;;;5121256;27;20294;-62
2023/03/17 07:57:09;;;;;;;1.83;1.70;;;;;;;;;;5118813;28;20621;-62
2023/03/17 07:59:37;;;;;;;2.25;1.65;;;;;;;;;;5119040;28;20234;-62
2023/03/17 08:02:05;;;;;;;2.05;1.85;;;;;;;;;;5117458;28;20326;-62
2023/03/17 08:04:33;;;;;;;1.85;1.60;;;;;;;;;;5107417;28;20286;-62
2023/03/17 08:07:05;;;;;;;2.10;1.70;;;;;;;;;;5113067;28;20203;-62
2023/03/17 08:09:32;;;;;;;1.60;1.40;;;;;;;;;;5118301;28;20202;-62
2023/03/17 08:12:00;;;;;;;2.30;1.70;;;;;;;;;;5117188;28;20205;-62
2023/03/17 08:14:27;;;;;;;1.63;1.52;;;;;;;;;;5117877;28;20214;-62
2023/03/17 08:16:55;;;;;;;2.03;1.55;;;;;;;;;;5117851;28;20292;-62
2023/03/17 08:19:23;;;;;;;2.08;1.52;;;;;;;;;;5118287;28;20289;-62
2023/03/17 08:21:50;;;;;;;3.67;1.75;;;;;;;;;;5131725;27;20233;-62
2023/03/17 08:24:19;;;;;;;1.63;1.52;;;;;;;;;;5138587;27;20285;-62
2023/03/17 08:26:49;;;;;;;2.65;1.42;;;;;;;;;;5137635;27;20278;-62
2023/03/17 08:29:16;;;;;;;1.73;1.45;;;;;;;;;;5138689;27;20503;-62
2023/03/17 08:31:43;;;;;;;1.80;1.40;;;;;;;;;;5138162;27;20241;-62
2023/03/17 08:34:11;;;;;;;1.88;1.63;;;;;;;;;;5137027;27;20233;-62
2023/03/17 08:36:38;;;;;;;2.00;1.50;;;;;;;;;;5137537;27;20843;-62
2023/03/17 08:39:06;;;;;;;1.55;1.38;;;;;;;;;;5138100;27;20535;-62
2023/03/17 08:41:36;;;;;;;1.50;1.40;;;;;;;;;;5138351;27;20245;-62
2023/03/17 08:44:04;;;;;;;2.38;1.55;;;;;;;;;;5138078;27;20713;-62
2023/03/17 08:46:32;;;;;;;2.22;1.63;;;;;;;;;;5137200;27;20242;-62
2023/03/17 08:49:00;;;;;;;1.80;1.50;;;;;;;;;;5126262;27;20230;-62
2023/03/17 08:51:30;;;;;;;4.40;1.65;;;;;;;;;;5116921;28;20234;-62
2023/03/17 08:53:57;;;;;;;4.43;1.48;;;;;;;;;;5116670;28;20205;-62
2023/03/17 08:56:25;;;;;;;2.20;1.17;;;;;;;;;;5116764;28;20234;-62
2023/03/17 08:58:54;;;;;;;1.92;1.42;;;;;;;;;;5117211;28;20632;-62
2023/03/17 09:01:21;;;;;;;2.92;1.63;;;;;;;;;;5116731;28;20203;-62
2023/03/17 09:03:49;;;;;;;1.42;1.30;;;;;;;;;;5117032;28;20231;-62
2023/03/17 09:06:17;;;;;;;1.80;1.40;;;;;;;;;;5116842;28;20242;-62
2023/03/17 09:08:46;;;;;;;1.60;1.50;;;;;;;;;;5117568;28;20245;-62
2023/03/17 09:11:15;;;;;;;2.30;1.45;;;;;;;;;;5116932;28;20194;-62
2023/03/17 09:13:43;;;;;;;1.77;1.50;;;;;;;;;;5116742;28;20578;-62
2023/03/17 09:16:11;;;;;;;2.50;1.55;;;;;;;;;;5123259;27;20229;-62
2023/03/17 09:18:39;;;;;;;2.53;1.50;;;;;;;;;;5137571;27;20243;-62
2023/03/17 09:21:08;;;;;;;1.48;1.30;;;;;;;;;;5136659;27;20644;-62
2023/03/17 09:23:36;;;;;;;1.40;1.25;;;;;;;;;;5136699;27;20640;-62
2023/03/17 09:26:03;;;;;;;2.33;1.60;;;;;;;;;;5136015;27;20210;-62
2023/03/17 09:28:31;;;;;;;5.47;1.50;;;;;;;;;;5137181;27;20619;-62
2023/03/17 09:31:00;;;;;;;1.58;1.38;;;;;;;;;;5136631;27;20734;-62
2023/03/17 09:33:29;;;;;;;2.03;1.40;;;;;;;;;;5136759;27;20293;-62
2023/03/17 09:35:57;;;;;;;1.95;1.38;;;;;;;;;;5136693;27;20202;-62
2023/03/17 09:38:25;;;;;;;1.48;1.30;;;;;;;;;;5136457;27;20617;-62
2023/03/17 09:40:55;;;;;;;1.80;1.35;;;;;;;;;;5137042;27;20217;-62
2023/03/17 09:43:27;;;;;;;1.40;1.27;;;;;;;;;;5136034;27;20226;-62
2023/03/17 09:45:56;;;;;;;2.33;1.10;;;;;;;;;;5136393;27;20308;-62
2023/03/17 09:48:30;;;;;;;1.20;1.10;;;;;;;;;;5136495;27;20272;-62
2023/03/17 09:51:01;;;;;;;2.22;1.40;;;;;;;;;;5136436;27;20213;-62
2023/03/17 09:53:33;;;;;;;1.30;1.17;;;;;;;;;;5136516;27;20213;-62
2023/03/17 09:56:03;;;;;;;2.42;1.50;;;;;;;;;;5135701;27;20217;-62
2023/03/17 09:58:32;;;;;;;1.90;1.17;;;;;;;;;;5134606;27;20205;-62
2023/03/17 10:00:59;;;;;;;1.30;1.00;;;;;;;;;;5135358;27;20202;-62
2023/03/17 10:03:27;;;;;;;2.33;1.33;;;;;;;;;;5135431;27;20230;-62
2023/03/17 10:05:59;;;;;;;1.77;1.40;;;;;;;;;;5136268;27;20321;-62
2023/03/17 10:08:31;;;;;;;2.65;1.25;;;;;;;;;;5135909;27;20584;-62
2023/03/17 10:11:02;;;;;;;1.42;1.20;;;;;;;;;;5136140;27;20214;-62
2023/03/17 10:13:35;;;;;;;1.70;1.30;;;;;;;;;;5136523;27;20204;-62
2023/03/17 10:16:04;;;;;;;1.42;1.20;;;;;;;;;;5134882;27;20202;-62
2023/03/17 10:18:33;;;;;;;1.35;1.25;;;;;;;;;;5135300;27;20274;-62
2023/03/17 10:21:02;;;;;;;1.70;1.35;;;;;;;;;;5135710;28;20233;-62
2023/03/17 10:23:32;;;;;;;1.23;1.13;;;;;;;;;;5135859;28;20269;-62
2023/03/17 10:26:03;;;;;;;1.35;1.20;;;;;;;;;;5135676;28;20279;-63
2023/03/17 10:28:33;;;;;;;1.38;1.17;;;;;;;;;;5135472;28;20342;-62
2023/03/17 10:31:02;;;;;;;1.20;1.10;;;;;;;;;;5135656;28;20198;-62
2023/03/17 10:33:31;;;;;;;1.50;1.20;;;;;;;;;;5135504;28;20198;-62
2023/03/17 10:36:08;;;;;;;1.20;1.00;;;;;;;;;;5135206;28;20300;-62
2023/03/17 10:38:36;;;;;;;1.30;1.20;;;;;;;;;;5135669;28;20197;-62
2023/03/17 10:41:07;;;;;;;1.40;1.30;;;;;;;;;;5135240;28;20242;-62
2023/03/17 10:43:43;;;;;;;1.20;1.10;;;;;;;;;;5134645;28;20214;-62
2023/03/17 10:46:18;;;;;;;1.70;1.38;;;;;;;;;;5135337;28;20198;-62
2023/03/17 10:48:51;;;;;;;1.20;1.05;;;;;;;;;;5135389;28;20671;-62
2023/03/17 10:51:22;;;;;;;1.30;1.20;;;;;;;;;;5134651;28;20199;-62
2023/03/17 10:53:53;;;;;;;1.50;1.33;;;;;;;;;;5134743;28;20305;-62
2023/03/17 10:56:24;;;;;;;1.20;1.10;;;;;;;;;;5134694;28;20231;-62
2023/03/17 10:58:53;;;;;;;1.33;1.23;;;;;;;;;;5120715;27;20207;-62
2023/03/17 11:01:23;;;;;;;1.20;1.08;;;;;;;;;;5138813;27;20654;-62
2023/03/17 11:03:51;;;;;;;1.70;1.10;;;;;;;;;;5138652;27;20222;-62
2023/03/17 11:06:19;;;;;;;1.10;1.00;;;;;;;;;;5138445;27;20725;-62
2023/03/17 11:08:48;;;;;;;1.20;1.10;;;;;;;;;;5138118;27;20199;-62
2023/03/17 11:11:24;;;;;;;1.30;1.17;;;;;;;;;;5137512;27;20210;-62
2023/03/17 11:13:52;;;;;;;1.48;1.17;;;;;;;;;;5138911;27;20262;-62
2023/03/17 11:16:22;;;;;;;1.70;1.20;;;;;;;;;;5138985;27;20208;-62
2023/03/17 11:18:50;;;;;;;1.58;1.40;;;;;;;;;;5137831;27;20454;-62
2023/03/17 11:21:21;;;;;;;1.30;1.20;;;;;;;;;;5137673;27;20263;-62
2023/03/17 11:23:51;;;;;;;1.48;1.10;;;;;;;;;;5137195;27;20322;-62
2023/03/17 11:26:36;;;;;;;1.17;1.08;;;;;;;;;;5138236;27;20202;-62
2023/03/17 11:29:13;;;;;;;1.02;0.93;;;;;;;;;;5122332;27;20195;-62
2023/03/17 11:31:43;;;;;;;1.35;1.25;;;;;;;;;;5138189;27;20209;-62
2023/03/17 11:34:14;;;;;;;1.10;1.00;;;;;;;;;;5136971;27;20190;-62
2023/03/17 11:36:46;;;;;;;1.67;1.20;;;;;;;;;;5137529;27;20230;-62
2023/03/17 11:39:16;;;;;;;1.30;1.20;;;;;;;;;;5137254;27;20598;-62
2023/03/17 11:41:50;;;;;;;1.42;1.20;;;;;;;;;;5137447;27;20251;-63
2023/03/17 11:44:47;;;;;;;1.88;1.10;;;;;;;;;;5138106;27;20319;-62
2023/03/17 11:47:22;;;;;;;1.52;1.27;;;;;;;;;;5033921;28;20241;-62
2023/03/17 11:49:56;;;;;;;1.50;1.40;;;;;;;;;;5118581;27;20297;-62
2023/03/17 11:52:28;;;;;;;1.65;1.20;;;;;;;;;;5138548;27;20294;-62
2023/03/17 11:54:59;;;;;;;1.20;1.10;;;;;;;;;;5137907;27;20200;-62
2023/03/17 11:57:28;;;;;;;1.05;0.95;;;;;;;;;;5138617;27;20202;-62
2023/03/17 11:59:59;;;;;;;1.38;1.20;;;;;;;;;;5138213;27;20239;-62
2023/03/17 12:02:30;;;;;;;2.78;1.20;;;;;;;;;;5138365;27;20297;-62
2023/03/17 12:04:59;;;;;;;1.83;1.02;;;;;;;;;;5138789;27;20222;-62
2023/03/17 12:07:30;;;;;;;1.60;1.10;;;;;;;;;;5138204;27;20202;-62
2023/03/17 12:10:07;;;;;;;1.33;1.23;;;;;;;;;;5137546;27;20799;-62
2023/03/17 12:12:38;;;;;;;1.45;1.35;;;;;;;;;;5137784;27;20296;-62
2023/03/17 12:15:13;;;;;;;1.77;1.45;;;;;;;;;;5137454;27;20202;-62
2023/03/17 12:17:45;;;;;;;1.98;1.70;;;;;;;;;;5136869;27;20357;-62
2023/03/17 12:20:16;;;;;;;1.90;1.58;;;;;;;;;;5136676;27;20305;-62
2023/03/17 12:22:46;;;;;;;1.58;1.42;;;;;;;;;;5137983;27;20271;-62
2023/03/17 12:25:17;;;;;;;2.35;1.50;;;;;;;;;;5137477;27;20230;-62
2023/03/17 12:27:47;;;;;;;1.70;1.60;;;;;;;;;;5136911;27;20198;-62
2023/03/17 12:30:18;;;;;;;1.60;1.50;;;;;;;;;;5137194;27;20371;-62
2023/03/17 12:32:50;;;;;;;1.50;1.40;;;;;;;;;;5135976;27;20226;-62
2023/03/17 12:35:25;;;;;;;2.45;1.92;;;;;;;;;;5136100;27;20199;-62
2023/03/17 12:37:52;;;;;;;1.67;1.40;;;;;;;;;;5135962;27;20604;-62
2023/03/17 12:40:23;;;;;;;2.28;1.80;;;;;;;;;;5136471;27;20203;-62
2023/03/17 12:42:52;;;;;;;1.77;1.52;;;;;;;;;;5136550;27;20212;-62
2023/03/17 12:45:38;;;;;;;1.40;1.30;;;;;;;;;;5136732;27;20754;-62
2023/03/17 12:48:18;;;;;;;2.05;1.85;;;;;;;;;;5135278;27;20205;-62
2023/03/17 12:51:05;;;;;;;2.72;1.58;;;;;;;;;;5136034;27;20250;-62
2023/03/17 12:53:34;;;;;;;1.48;1.38;;;;;;;;;;5136370;27;20222;-67
2023/03/17 12:56:04;;;;;;;1.80;1.70;;;;;;;;;;5136003;27;20669;-63
2023/03/17 12:58:33;;;;;;;2.03;1.30;;;;;;;;;;5135070;27;20307;-62
2023/03/17 13:01:08;;;;;;;1.55;1.45;;;;;;;;;;5136315;27;20505;-63
2023/03/17 13:03:38;;;;;;;1.70;1.60;;;;;;;;;;5135117;27;20217;-62
2023/03/17 13:06:07;;;;;;;2.20;1.65;;;;;;;;;;5135389;27;20194;-62
2023/03/17 13:08:36;;;;;;;1.55;1.45;;;;;;;;;;5136332;27;20203;-62
2023/03/17 13:11:18;;;;;;;1.40;1.30;;;;;;;;;;5135833;27;20202;-62
2023/03/17 13:13:48;;;;;;;1.95;1.55;;;;;;;;;;5135460;27;20201;-62
2023/03/17 13:16:28;;;;;;;1.40;1.30;;;;;;;;;;5136115;27;20209;-62
2023/03/17 13:19:18;;;;;;;2.13;1.52;;;;;;;;;;5136950;27;20202;-62
2023/03/17 13:21:46;;;;;;;1.77;1.60;;;;;;;;;;5135571;27;20202;-62
2023/03/17 13:24:32;;;;;;;1.55;1.45;;;;;;;;;;5136421;27;20655;-62
2023/03/17 13:27:03;;;;;;;2.22;1.58;;;;;;;;;;5125540;27;20257;-62
2023/03/17 13:29:41;;;;;;;1.83;1.63;;;;;;;;;;5115297;28;20307;-62
2023/03/17 13:32:27;;;;;;;2.05;1.85;;;;;;;;;;5114422;28;20351;-62
2023/03/17 13:35:14;;;;;;;1.80;1.70;;;;;;;;;;5115051;28;20195;-62
2023/03/17 13:37:50;;;;;;;2.25;1.50;;;;;;;;;;5115384;28;20203;-62
2023/03/17 13:40:20;;;;;;;1.70;1.60;;;;;;;;;;5114855;28;20263;-62
2023/03/17 13:43:11;;;;;;;1.95;1.80;;;;;;;;;;5113959;28;20305;-62
2023/03/17 13:45:40;;;;;;;3.15;2.10;;;;;;;;;;5090102;28;20222;-62
2023/03/17 13:48:27;;;;;;;1.83;1.70;;;;;;;;;;5114991;28;20242;-62
2023/03/17 13:51:01;;;;;;;1.55;1.45;;;;;;;;;;5115146;28;20248;-62
2023/03/17 13:53:30;;;;;;;1.67;1.58;;;;;;;;;;5114337;28;20203;-62
2023/03/17 13:56:18;;;;;;;1.98;1.52;;;;;;;;;;5115114;27;20259;-62
2023/03/17 13:58:59;;;;;;;1.60;1.50;;;;;;;;;;5119840;27;20194;-62
2023/03/17 14:01:27;;;;;;;1.58;1.45;;;;;;;;;;5095221;28;20242;-62
2023/03/17 14:03:55;;;;;;;1.85;1.73;;;;;;;;;;5094014;28;20236;-62
2023/03/17 14:06:26;;;;;;;2.22;1.80;;;;;;;;;;5094911;28;20256;-62
2023/03/17 14:08:55;;;;;;;1.80;1.70;;;;;;;;;;5094966;28;20298;-62
2023/03/17 14:11:33;;;;;;;1.60;1.50;;;;;;;;;;5093816;28;20292;-62
2023/03/17 14:14:08;;;;;;;1.77;1.67;;;;;;;;;;5093846;28;20299;-62
2023/03/17 14:16:38;;;;;;;2.00;1.80;;;;;;;;;;5094652;28;20641;-62
2023/03/17 14:19:12;;;;;;;1.88;1.67;;;;;;;;;;5094357;28;20203;-62
2023/03/17 14:21:41;;;;;;;2.53;1.95;;;;;;;;;;5093941;28;20260;-62
2023/03/17 14:24:18;;;;;;;2.10;1.90;;;;;;;;;;5113171;28;20226;-61
2023/03/17 14:26:47;;;;;;;1.67;1.55;;;;;;;;;;5134175;28;20233;-61
2023/03/17 14:29:16;;;;;;;2.10;1.90;;;;;;;;;;5133678;28;20202;-61
2023/03/17 14:31:47;;;;;;;3.08;1.67;;;;;;;;;;5134843;28;20213;-61
2023/03/17 14:34:15;;;;;;;1.70;1.58;;;;;;;;;;5136412;27;20198;-61
2023/03/17 14:36:45;;;;;;;2.42;2.00;;;;;;;;;;5138044;27;20203;-62
2023/03/17 14:39:26;;;;;;;2.47;1.67;;;;;;;;;;5138966;27;20713;-62
2023/03/17 14:42:00;;;;;;;1.88;1.67;;;;;;;;;;5138760;27;20642;-62
2023/03/17 14:44:28;;;;;;;1.90;1.60;;;;;;;;;;5138729;27;20225;-62
2023/03/17 14:47:02;;;;;;;1.70;1.60;;;;;;;;;;5138500;27;20691;-62
2023/03/17 14:49:32;;;;;;;2.42;1.70;;;;;;;;;;5139365;27;20198;-62
2023/03/17 14:52:01;;;;;;;2.33;1.80;;;;;;;;;;5136452;27;20258;-62
2023/03/17 14:54:31;;;;;;;2.20;1.75;;;;;;;;;;5124150;27;20213;-62
2023/03/17 14:57:02;;;;;;;2.22;1.77;;;;;;;;;;5138580;27;20796;-62